createdAt,value
2022-12-08T00:01:20.075Z,2.10
2022-12-08T00:03:47.210Z,1.83
2022-12-08T00:06:42.233Z,1.95
2022-12-08T00:09:23.873Z,1.90
2022-12-08T00:12:00.430Z,1.77
2022-12-08T00:14:29.213Z,1.90
2022-12-08T00:16:56.465Z,1.70
2022-12-08T00:19:23.911Z,1.52
2022-12-08T00:21:51.525Z,1.63
2022-12-08T00:24:18.935Z,1.27
2022-12-08T00:26:45.850Z,1.40
2022-12-08T00:29:17.211Z,1.40
2022-12-08T00:31:44.204Z,1.65
2022-12-08T00:34:12.596Z,1.38
2022-12-08T00:36:39.085Z,1.60
2022-12-08T00:39:06.065Z,1.27
2022-12-08T00:41:51.138Z,1.30
2022-12-08T00:44:21.085Z,1.40
2022-12-08T00:46:48.824Z,1.55
2022-12-08T00:49:16.724Z,1.15
2022-12-08T00:51:43.615Z,1.58
2022-12-08T00:54:10.279Z,1.55
2022-12-08T00:56:36.863Z,1.30
2022-12-08T00:59:04.674Z,1.08
2022-12-08T01:01:31.493Z,1.20
2022-12-08T01:03:58.126Z,1.40
2022-12-08T01:06:24.649Z,1.52
2022-12-08T01:08:51.185Z,1.20
2022-12-08T01:11:18.782Z,1.67
2022-12-08T01:13:46.050Z,1.20
2022-12-08T01:16:20.798Z,1.40
2022-12-08T01:18:47.336Z,1.50
2022-12-08T01:21:13.799Z,1.67
2022-12-08T01:23:40.332Z,1.67
2022-12-08T01:26:08.377Z,2.17
2022-12-08T01:28:35.004Z,2.08
2022-12-08T01:31:02.289Z,2.05
2022-12-08T01:33:29.107Z,2.00
2022-12-08T01:35:55.686Z,2.40
2022-12-08T01:38:22.611Z,2.55
2022-12-08T01:40:49.521Z,2.22
2022-12-08T01:43:17.830Z,3.30
2022-12-08T01:45:44.417Z,2.38
2022-12-08T01:48:29.066Z,2.33
2022-12-08T01:50:55.919Z,2.60
2022-12-08T01:53:24.825Z,2.72
2022-12-08T01:55:55.590Z,2.47
2022-12-08T01:58:28.884Z,2.85
2022-12-08T02:00:55.484Z,2.72
2022-12-08T02:03:34.572Z,2.65
2022-12-08T02:06:02.140Z,2.65
2022-12-08T02:08:29.189Z,3.33
2022-12-08T02:10:55.732Z,2.63
2022-12-08T02:13:23.506Z,3.00
2022-12-08T02:16:09.932Z,2.92
2022-12-08T02:19:31.197Z,2.92
2022-12-08T02:22:11.990Z,3.05
2022-12-08T02:25:04.296Z,3.45
2022-12-08T02:27:33.950Z,3.13
2022-12-08T02:30:15.691Z,3.63
2022-12-08T02:33:09.332Z,3.42
2022-12-08T02:35:57.740Z,3.63
2022-12-08T02:38:33.231Z,3.33
2022-12-08T02:41:12.300Z,3.08
2022-12-08T02:43:42.719Z,3.20
2022-12-08T02:46:11.878Z,3.25
2022-12-08T02:48:38.996Z,3.45
2022-12-08T02:51:06.660Z,3.95
2022-12-08T02:53:35.159Z,3.92
2022-12-08T02:56:14.808Z,4.13
2022-12-08T02:59:03.057Z,4.18
2022-12-08T03:01:36.421Z,4.55
2022-12-08T03:04:08.897Z,4.35
2022-12-08T03:06:46.587Z,5.07
2022-12-08T03:09:36.779Z,4.00
2022-12-08T03:12:19.449Z,4.10
2022-12-08T03:14:48.541Z,4.03
2022-12-08T03:17:16.924Z,3.97
2022-12-08T03:19:44.104Z,4.40
2022-12-08T03:22:11.417Z,4.85
2022-12-08T03:24:39.949Z,4.65
2022-12-08T03:27:12.231Z,4.88
2022-12-08T03:29:38.734Z,4.50
2022-12-08T03:32:26.481Z,3.92
2022-12-08T03:34:53.373Z,4.40
2022-12-08T03:37:21.041Z,3.92
2022-12-08T03:39:47.683Z,4.05
2022-12-08T03:42:14.221Z,5.07
2022-12-08T03:44:40.819Z,4.78
2022-12-08T03:47:07.292Z,4.90
2022-12-08T03:49:33.856Z,4.85
2022-12-08T03:52:00.378Z,4.68
2022-12-08T03:54:26.954Z,5.60
2022-12-08T03:56:53.489Z,5.75
2022-12-08T03:59:20.039Z,5.60
2022-12-08T04:01:46.610Z,5.57
2022-12-08T04:04:13.231Z,5.70
2022-12-08T04:06:39.716Z,5.65
2022-12-08T04:09:06.248Z,5.03
2022-12-08T04:11:32.746Z,5.18
2022-12-08T04:13:59.409Z,5.18
2022-12-08T04:16:27.907Z,4.82
2022-12-08T04:18:54.735Z,4.18
2022-12-08T04:21:21.305Z,4.00
2022-12-08T04:23:48.295Z,4.18
2022-12-08T04:26:14.891Z,5.43
2022-12-08T04:28:41.820Z,5.03
2022-12-08T04:31:08.474Z,5.32
2022-12-08T04:33:35.372Z,5.95
2022-12-08T04:36:04.170Z,5.20
2022-12-08T04:38:31.037Z,5.72
2022-12-08T04:40:57.541Z,5.45
2022-12-08T04:43:24.168Z,6.35
2022-12-08T04:45:50.683Z,6.13
2022-12-08T04:48:17.745Z,5.85
2022-12-08T04:50:45.190Z,6.43
2022-12-08T04:53:12.521Z,3.03
2022-12-08T04:55:41.332Z,4.65
2022-12-08T04:58:07.895Z,5.80
2022-12-08T05:00:34.417Z,5.78
2022-12-08T05:03:01.049Z,6.70
2022-12-08T05:05:27.619Z,7.82
2022-12-08T05:07:54.103Z,6.25
2022-12-08T05:10:20.659Z,6.07
2022-12-08T05:12:47.242Z,2.25
2022-12-08T05:15:13.724Z,3.95
2022-12-08T05:17:40.277Z,4.00
2022-12-08T05:20:07.488Z,4.35
2022-12-08T05:22:34.002Z,3.45
2022-12-08T05:25:00.524Z,3.67
2022-12-08T05:27:27.024Z,3.75
2022-12-08T05:29:53.532Z,3.28
2022-12-08T05:32:20.061Z,3.20
2022-12-08T05:34:46.543Z,3.10
2022-12-08T05:37:13.039Z,3.70
2022-12-08T05:39:39.517Z,2.40
2022-12-08T05:42:06.423Z,2.38
2022-12-08T05:44:32.927Z,2.28
2022-12-08T05:46:59.487Z,1.60
2022-12-08T05:49:26.391Z,1.88
2022-12-08T05:51:52.909Z,1.73
2022-12-08T05:54:19.397Z,1.60
2022-12-08T05:56:45.865Z,1.77
2022-12-08T05:59:12.368Z,1.65
2022-12-08T06:01:39.199Z,1.30
2022-12-08T06:04:05.727Z,1.30
2022-12-08T06:06:34.211Z,1.30
2022-12-08T06:09:05.553Z,1.40
2022-12-08T06:11:32.798Z,1.30
2022-12-08T06:13:59.561Z,1.48
2022-12-08T06:16:27.186Z,1.27
2022-12-08T06:18:54.441Z,1.33
2022-12-08T06:21:21.062Z,1.38
2022-12-08T06:23:49.022Z,1.27
2022-12-08T06:26:16.148Z,1.30
2022-12-08T06:28:43.241Z,2.35
2022-12-08T06:31:21.818Z,1.00
2022-12-08T06:33:48.856Z,1.20
2022-12-08T06:36:20.605Z,1.45
2022-12-08T06:38:47.345Z,1.35
2022-12-08T06:41:14.184Z,2.13
2022-12-08T06:43:41.381Z,1.40
2022-12-08T06:46:11.054Z,1.40
2022-12-08T06:48:37.644Z,2.20
2022-12-08T06:51:12.700Z,1.52
2022-12-08T06:53:39.373Z,2.35
2022-12-08T06:56:06.875Z,2.00
2022-12-08T06:58:34.961Z,3.15
2022-12-08T07:01:10.369Z,2.65
2022-12-08T07:03:37.807Z,3.00
2022-12-08T07:06:04.993Z,2.95
2022-12-08T07:08:32.575Z,2.97
2022-12-08T07:10:59.346Z,3.20
2022-12-08T07:13:25.844Z,3.10
2022-12-08T07:15:52.350Z,3.15
2022-12-08T07:18:18.837Z,2.83
2022-12-08T07:20:45.404Z,2.67
2022-12-08T07:23:11.922Z,2.92
2022-12-08T07:25:38.406Z,2.53
2022-12-08T07:28:08.461Z,3.33
2022-12-08T07:30:34.990Z,4.05
2022-12-08T07:33:02.827Z,2.97
2022-12-08T07:35:29.306Z,1.50
2022-12-08T07:37:55.898Z,1.42
2022-12-08T07:40:22.426Z,1.20
2022-12-08T07:42:48.923Z,1.70
2022-12-08T07:45:15.495Z,1.17
2022-12-08T07:47:41.965Z,0.93
2022-12-08T07:50:08.620Z,1.30
2022-12-08T07:52:35.484Z,1.45
2022-12-08T07:55:02.135Z,1.50
2022-12-08T07:57:28.619Z,1.45
2022-12-08T07:59:55.103Z,1.80
2022-12-08T08:02:24.746Z,1.35
2022-12-08T08:04:52.257Z,1.40
2022-12-08T08:07:18.813Z,1.23
2022-12-08T08:09:45.812Z,1.77
2022-12-08T08:15:00.631Z,1.40
2022-12-08T08:17:28.217Z,1.40
2022-12-08T08:19:54.844Z,2.90
2022-12-08T08:22:21.369Z,2.75
2022-12-08T08:24:47.941Z,2.90
2022-12-08T08:27:14.500Z,2.53
2022-12-08T08:29:40.960Z,2.30
2022-12-08T08:32:07.424Z,2.67
2022-12-08T08:34:33.946Z,1.67
2022-12-08T08:37:00.618Z,2.30
2022-12-08T08:39:27.227Z,1.80
2022-12-08T08:41:53.688Z,1.70
2022-12-08T08:44:20.235Z,1.70
2022-12-08T08:46:46.868Z,1.60
2022-12-08T08:49:13.416Z,1.50
2022-12-08T08:51:39.935Z,1.50
2022-12-08T08:54:06.514Z,1.40
2022-12-08T08:56:33.039Z,1.38
2022-12-08T08:58:59.569Z,1.23
2022-12-08T09:01:28.051Z,1.30
2022-12-08T09:03:55.275Z,1.40
2022-12-08T09:06:22.690Z,1.27
2022-12-08T09:08:50.544Z,1.15
2022-12-08T09:11:18.552Z,1.20
2022-12-08T09:13:49.038Z,1.23
2022-12-08T09:16:17.170Z,1.33
2022-12-08T09:18:43.755Z,1.35
2022-12-08T09:21:14.945Z,1.20
2022-12-08T09:23:41.463Z,0.88
2022-12-08T09:26:08.088Z,1.00
2022-12-08T09:28:34.614Z,1.00
2022-12-08T09:31:01.686Z,0.90
2022-12-08T09:33:28.240Z,0.70
2022-12-08T09:35:54.759Z,1.02
2022-12-08T09:38:21.305Z,0.70
2022-12-08T09:40:54.056Z,1.05
2022-12-08T09:43:31.685Z,1.10
2022-12-08T09:45:58.625Z,1.60
2022-12-08T09:48:36.110Z,1.40
2022-12-08T09:51:03.663Z,1.27
2022-12-08T09:54:00.604Z,1.23
2022-12-08T09:56:30.333Z,1.38
2022-12-08T09:59:17.243Z,1.88
2022-12-08T10:01:43.808Z,1.15
2022-12-08T10:04:22.136Z,1.52
2022-12-08T10:06:59.969Z,1.48
2022-12-08T10:09:43.085Z,1.58
2022-12-08T10:12:26.502Z,1.60
2022-12-08T10:14:59.694Z,1.90
2022-12-08T10:17:39.017Z,1.73
2022-12-08T10:20:20.359Z,2.15
2022-12-08T10:23:11.575Z,2.28
2022-12-08T10:25:41.576Z,2.70
2022-12-08T10:28:08.781Z,2.58
2022-12-08T10:30:35.343Z,3.88
2022-12-08T10:33:01.876Z,3.50
2022-12-08T10:35:44.618Z,2.90
2022-12-08T10:38:29.875Z,3.38
2022-12-08T10:41:18.132Z,3.53
2022-12-08T10:43:48.147Z,4.05
2022-12-08T10:46:18.238Z,3.47
2022-12-08T10:49:11.354Z,3.83
2022-12-08T10:51:42.543Z,3.75
2022-12-08T10:54:34.366Z,3.92
2022-12-08T10:57:00.922Z,3.40
2022-12-08T10:59:27.867Z,3.47
2022-12-08T11:01:56.321Z,3.72
2022-12-08T11:04:36.578Z,3.58
2022-12-08T11:07:05.193Z,3.58
2022-12-08T11:09:46.662Z,4.18
2022-12-08T11:12:15.424Z,4.25
2022-12-08T11:14:45.701Z,3.90
2022-12-08T11:17:25.718Z,3.47
2022-12-08T11:20:22.133Z,2.97
2022-12-08T11:22:55.723Z,3.15
2022-12-08T11:25:26.496Z,2.90
2022-12-08T11:27:57.019Z,3.08
2022-12-08T11:30:30.916Z,3.45
2022-12-08T11:33:02.025Z,3.28
2022-12-08T11:35:30.934Z,3.53
2022-12-08T11:38:20.455Z,3.67
2022-12-08T11:40:51.059Z,3.00
2022-12-08T11:43:34.576Z,3.30
2022-12-08T11:46:03.445Z,3.05
2022-12-08T11:49:07.028Z,2.70
2022-12-08T11:51:50.985Z,3.30
2022-12-08T11:54:27.473Z,3.28
2022-12-08T11:56:56.273Z,3.30
2022-12-08T11:59:38.318Z,2.88
2022-12-08T12:02:05.594Z,3.22
2022-12-08T12:04:39.040Z,2.95
2022-12-08T12:07:11.326Z,3.00
2022-12-08T12:09:56.589Z,2.80
2022-12-08T12:12:40.277Z,2.85
2022-12-08T12:15:46.306Z,3.00
2022-12-08T12:18:19.992Z,3.03
2022-12-08T12:23:24.723Z,2.90
2022-12-08T12:25:57.920Z,3.13
2022-12-08T12:28:26.626Z,2.92
2022-12-08T12:31:22.893Z,3.00
2022-12-08T12:33:50.990Z,2.92
2022-12-08T12:36:17.851Z,3.30
2022-12-08T12:39:08.578Z,2.92
2022-12-08T12:42:00.410Z,2.80
2022-12-08T12:44:29.905Z,3.45
2022-12-08T12:46:58.963Z,3.28
2022-12-08T12:49:37.803Z,2.83
2022-12-08T12:52:18.658Z,3.35
2022-12-08T12:54:50.935Z,3.40
2022-12-08T12:57:20.509Z,3.10
2022-12-08T12:59:53.261Z,3.83
2022-12-08T13:02:24.213Z,3.75
2022-12-08T13:05:00.957Z,3.55
2022-12-08T13:07:30.426Z,3.53
2022-12-08T13:10:01.302Z,3.60
2022-12-08T13:12:28.281Z,3.40
2022-12-08T13:15:01.053Z,3.17
2022-12-08T13:17:31.095Z,4.10
2022-12-08T13:20:00.929Z,4.03
2022-12-08T13:23:06.459Z,3.60
2022-12-08T13:25:47.335Z,3.58
2022-12-08T13:28:27.411Z,3.80
2022-12-08T13:30:56.202Z,3.08
2022-12-08T13:33:29.743Z,3.35
2022-12-08T13:36:24.023Z,2.58
2022-12-08T13:41:22.029Z,3.28
2022-12-08T13:44:50.272Z,3.05
2022-12-08T13:47:24.594Z,3.17
2022-12-08T13:53:49.148Z,2.83
2022-12-08T13:58:40.148Z,2.72
2022-12-08T14:01:16.613Z,2.35
2022-12-08T14:04:37.202Z,2.65
2022-12-08T14:06:49.532Z,2.63
2022-12-08T14:09:19.364Z,2.90
2022-12-08T14:11:50.354Z,2.47
2022-12-08T14:14:45.971Z,2.60
2022-12-08T14:17:14.856Z,4.15
2022-12-08T14:19:44.838Z,2.50
2022-12-08T14:22:13.986Z,3.20
2022-12-08T14:24:45.157Z,2.72
2022-12-08T14:27:16.026Z,3.08
2022-12-08T14:29:47.832Z,3.30
2022-12-08T14:32:47.341Z,3.30
2022-12-08T14:35:22.700Z,3.20
2022-12-08T14:37:51.969Z,3.10
2022-12-08T14:40:22.754Z,3.50
2022-12-08T14:43:04.774Z,3.22
2022-12-08T14:45:34.985Z,3.10
2022-12-08T14:48:27.895Z,2.90
2022-12-08T14:51:03.433Z,2.92
2022-12-08T14:53:39.740Z,2.90
2022-12-08T14:56:19.284Z,3.00
2022-12-08T14:58:46.725Z,3.25
2022-12-08T15:01:17.075Z,2.97
2022-12-08T15:03:50.447Z,3.05
2022-12-08T15:06:20.512Z,3.15
2022-12-08T15:08:58.743Z,2.80
2022-12-08T15:11:31.896Z,2.78
2022-12-08T15:13:58.742Z,3.08
2022-12-08T15:16:30.177Z,3.25
2022-12-08T15:19:17.567Z,2.80
2022-12-08T15:21:45.056Z,2.75
2022-12-08T15:24:14.970Z,2.67
2022-12-08T15:26:47.618Z,3.03
2022-12-08T15:29:26.710Z,3.33
2022-12-08T15:31:58.752Z,3.10
2022-12-08T15:34:25.368Z,3.20
2022-12-08T15:36:53.994Z,3.58
2022-12-08T15:39:40.740Z,3.50
2022-12-08T15:42:12.435Z,3.58
2022-12-08T15:44:39.117Z,3.42
2022-12-08T15:47:06.264Z,3.83
2022-12-08T15:49:32.765Z,3.88
2022-12-08T15:52:10.744Z,3.72
2022-12-08T15:54:38.314Z,3.75
2022-12-08T15:57:20.127Z,3.55
2022-12-08T15:59:49.187Z,3.13
2022-12-08T16:02:22.228Z,3.85
2022-12-08T16:07:38.056Z,3.63
2022-12-08T16:10:06.729Z,3.80
2022-12-08T16:15:57.141Z,3.88
2022-12-08T16:18:29.078Z,3.60
2022-12-08T16:21:10.362Z,4.25
2022-12-08T16:23:44.712Z,4.00
2022-12-08T16:26:35.465Z,4.35
2022-12-08T16:29:04.108Z,4.60
2022-12-08T16:31:30.784Z,4.38
2022-12-08T16:33:57.394Z,5.50
2022-12-08T16:36:23.859Z,4.60
2022-12-08T16:38:50.381Z,4.40
2022-12-08T16:41:35.799Z,4.53
2022-12-08T16:44:03.816Z,5.00
2022-12-08T16:46:30.468Z,5.00
2022-12-08T16:48:58.833Z,5.47
2022-12-08T16:51:27.415Z,6.40
2022-12-08T16:53:55.465Z,6.57
2022-12-08T16:56:26.254Z,6.63
2022-12-08T16:58:57.183Z,6.65
2022-12-08T17:01:24.504Z,6.82
2022-12-08T17:04:14.230Z,6.60
2022-12-08T17:06:37.746Z,7.25
2022-12-08T17:09:04.822Z,6.97
2022-12-08T17:11:36.181Z,7.53
2022-12-08T17:14:05.841Z,6.88
2022-12-08T17:16:32.477Z,7.18
2022-12-08T17:18:59.078Z,7.07
2022-12-08T17:21:25.536Z,7.72
2022-12-08T17:23:51.996Z,8.50
2022-12-08T17:26:18.545Z,9.55
2022-12-08T17:29:00.160Z,10.48
2022-12-08T17:31:30.222Z,15.40
2022-12-08T17:34:02.290Z,18.63
2022-12-08T17:36:29.071Z,17.52
2022-12-08T17:38:56.230Z,17.02
2022-12-08T17:41:22.733Z,15.80
2022-12-08T17:43:49.272Z,18.10
2022-12-08T17:46:19.986Z,21.58
2022-12-08T17:48:47.151Z,23.50
2022-12-08T17:51:13.939Z,25.98
2022-12-08T17:53:40.786Z,22.20
2022-12-08T17:56:14.853Z,11.55
2022-12-08T17:58:41.395Z,9.13
2022-12-08T18:01:09.349Z,8.70
2022-12-08T18:03:36.563Z,8.90
2022-12-08T18:06:08.353Z,9.15
2022-12-08T18:08:35.320Z,11.15
2022-12-08T18:11:03.297Z,8.35
2022-12-08T18:13:30.545Z,8.82
2022-12-08T18:15:57.204Z,9.63
2022-12-08T18:18:23.836Z,10.57
2022-12-08T18:20:50.436Z,8.65
2022-12-08T18:23:17.693Z,8.38
2022-12-08T18:25:44.768Z,8.70
2022-12-08T18:28:11.492Z,8.77
2022-12-08T18:30:39.623Z,8.43
2022-12-08T18:33:07.209Z,7.15
2022-12-08T18:35:34.043Z,7.05
2022-12-08T18:38:00.661Z,7.65
2022-12-08T18:40:28.145Z,8.70
2022-12-08T18:42:55.052Z,8.07
2022-12-08T18:45:22.529Z,9.13
2022-12-08T18:47:51.015Z,10.43
2022-12-08T18:50:18.118Z,10.18
2022-12-08T18:52:45.799Z,10.23
2022-12-08T18:55:13.111Z,10.55
2022-12-08T18:57:42.385Z,9.20
2022-12-08T19:00:12.293Z,9.43
2022-12-08T19:02:39.075Z,9.73
2022-12-08T19:05:06.836Z,10.60
2022-12-08T19:07:33.370Z,10.35
2022-12-08T19:09:59.943Z,8.82
2022-12-08T19:12:26.536Z,10.07
2022-12-08T19:14:53.083Z,9.48
2022-12-08T19:17:19.614Z,9.00
2022-12-08T19:19:46.187Z,8.82
2022-12-08T19:22:12.689Z,8.60
2022-12-08T19:24:39.184Z,8.60
2022-12-08T19:27:06.058Z,9.65
2022-12-08T19:29:32.630Z,8.02
2022-12-08T19:32:00.283Z,8.73
2022-12-08T19:34:27.160Z,10.30
2022-12-08T19:36:53.658Z,10.25
2022-12-08T19:39:40.464Z,9.60
2022-12-08T19:42:37.272Z,10.07
2022-12-08T19:45:11.915Z,19.10
2022-12-08T19:47:39.289Z,13.13
2022-12-08T19:50:25.967Z,11.02
2022-12-08T19:52:53.751Z,11.95
2022-12-08T19:55:20.593Z,9.68
2022-12-08T19:57:47.099Z,9.18
2022-12-08T20:00:13.909Z,9.38
2022-12-08T20:02:40.516Z,8.68
2022-12-08T20:05:08.372Z,9.02
2022-12-08T20:07:35.305Z,8.40
2022-12-08T20:10:05.175Z,7.97
2022-12-08T20:12:31.931Z,8.18
2022-12-08T20:14:58.465Z,8.30
2022-12-08T20:17:24.985Z,8.85
2022-12-08T20:19:51.628Z,8.35
2022-12-08T20:22:18.184Z,9.80
2022-12-08T20:24:44.826Z,9.57
2022-12-08T20:27:12.664Z,9.73
2022-12-08T20:29:39.175Z,10.48
2022-12-08T20:32:06.011Z,9.95
2022-12-08T20:34:34.423Z,11.20
2022-12-08T20:37:00.906Z,12.00
2022-12-08T20:39:27.523Z,11.38
2022-12-08T20:41:55.284Z,11.77
2022-12-08T20:44:22.087Z,11.07
2022-12-08T20:46:49.760Z,10.82
2022-12-08T20:49:16.476Z,10.02
2022-12-08T20:51:44.452Z,10.57
2022-12-08T20:54:11.461Z,10.70
2022-12-08T20:56:41.031Z,10.02
2022-12-08T20:59:16.840Z,10.77
2022-12-08T21:01:43.415Z,10.88
2022-12-08T21:04:13.362Z,10.88
2022-12-08T21:06:40.043Z,11.35
2022-12-08T21:09:07.249Z,11.60
2022-12-08T21:11:33.889Z,10.85
2022-12-08T21:14:00.430Z,11.55
2022-12-08T21:16:27.140Z,11.98
2022-12-08T21:18:54.125Z,11.35
2022-12-08T21:21:20.831Z,11.38
2022-12-08T21:23:48.089Z,11.32
2022-12-08T21:26:17.197Z,10.57
2022-12-08T21:28:43.862Z,10.73
2022-12-08T21:31:13.191Z,12.65
2022-12-08T21:33:40.274Z,12.57
2022-12-08T21:36:10.775Z,12.43
2022-12-08T21:38:38.520Z,11.40
2022-12-08T21:41:09.813Z,13.13
2022-12-08T21:43:36.661Z,13.50
2022-12-08T21:46:03.446Z,13.35
2022-12-08T21:48:30.084Z,14.73
2022-12-08T21:50:57.176Z,13.02
2022-12-08T21:53:26.444Z,13.40
2022-12-08T21:55:53.236Z,13.30
2022-12-08T21:58:19.833Z,13.07
2022-12-08T22:00:46.568Z,14.00
2022-12-08T22:03:14.342Z,14.48
2022-12-08T22:05:42.142Z,15.20
2022-12-08T22:08:09.008Z,14.63
2022-12-08T22:10:35.718Z,13.95
2022-12-08T22:13:02.945Z,14.07
2022-12-08T22:15:30.003Z,13.98
2022-12-08T22:17:56.938Z,15.43
2022-12-08T22:20:23.740Z,14.27
2022-12-08T22:22:50.394Z,14.52
2022-12-08T22:25:16.929Z,14.43
2022-12-08T22:27:43.608Z,14.32
2022-12-08T22:30:11.072Z,13.35
2022-12-08T22:32:38.549Z,14.35
2022-12-08T22:35:05.629Z,14.98
2022-12-08T22:37:32.307Z,14.15
2022-12-08T22:39:58.854Z,13.55
2022-12-08T22:42:25.388Z,13.45
2022-12-08T22:44:51.866Z,11.55
2022-12-08T22:47:18.415Z,11.02
2022-12-08T22:49:44.880Z,11.68
2022-12-08T22:52:11.349Z,11.75
2022-12-08T22:54:37.947Z,11.48
2022-12-08T22:57:04.500Z,11.63
2022-12-08T22:59:33.282Z,11.52
2022-12-08T23:01:59.896Z,10.77
2022-12-08T23:04:26.707Z,11.55
2022-12-08T23:06:53.584Z,10.93
2022-12-08T23:09:20.178Z,11.70
2022-12-08T23:11:46.750Z,11.20
2022-12-08T23:14:13.409Z,11.95
2022-12-08T23:16:40.067Z,12.75
2022-12-08T23:19:06.870Z,11.48
2022-12-08T23:21:33.362Z,10.65
2022-12-08T23:24:01.247Z,12.95
2022-12-08T23:26:30.382Z,12.85
2022-12-08T23:28:57.468Z,12.70
2022-12-08T23:31:24.813Z,11.15
2022-12-08T23:33:52.047Z,13.10
2022-12-08T23:36:20.429Z,12.73
2022-12-08T23:38:47.622Z,13.52
2022-12-08T23:41:15.087Z,13.68
2022-12-08T23:43:46.731Z,13.02
2022-12-08T23:46:15.196Z,12.65
2022-12-08T23:48:41.805Z,11.93
2022-12-08T23:51:08.828Z,13.38
2022-12-08T23:53:35.930Z,13.25
2022-12-08T23:56:08.260Z,13.90
2022-12-08T23:58:35.590Z,13.25
